createdAt,value
2017-12-06T00:00:36.143Z,87.10
2017-12-06T00:03:03.726Z,86.20
2017-12-06T00:05:31.252Z,86.00
2017-12-06T00:07:58.745Z,86.30
2017-12-06T00:10:26.227Z,85.50
2017-12-06T00:12:54.494Z,85.60
2017-12-06T00:15:21.990Z,85.60
2017-12-06T00:17:49.469Z,85.60
2017-12-06T00:20:17.012Z,84.50
2017-12-06T00:22:45.248Z,84.40
2017-12-06T00:25:12.758Z,84.40
2017-12-06T00:27:40.243Z,84.60
2017-12-06T00:30:07.763Z,84.30
2017-12-06T00:32:35.999Z,84.50
2017-12-06T00:35:03.457Z,84.50
2017-12-06T00:37:30.929Z,84.10
2017-12-06T00:39:58.417Z,84.20
2017-12-06T00:42:25.913Z,84.00
2017-12-06T00:44:54.172Z,84.20
2017-12-06T00:47:22.381Z,84.10
2017-12-06T00:49:49.856Z,84.00
2017-12-06T00:52:18.059Z,83.40
2017-12-06T00:54:45.580Z,83.40
2017-12-06T00:57:13.868Z,83.30
2017-12-06T00:59:41.342Z,83.30
2017-12-06T01:02:08.882Z,83.30
2017-12-06T01:04:36.356Z,84.20
2017-12-06T01:07:03.828Z,84.00
2017-12-06T01:09:31.301Z,84.20
2017-12-06T01:11:58.807Z,84.20
2017-12-06T01:14:26.280Z,83.80
2017-12-06T01:16:54.556Z,84.20
2017-12-06T01:19:22.781Z,83.60
2017-12-06T01:21:50.305Z,83.60
2017-12-06T01:24:17.771Z,83.60
2017-12-06T01:26:46.013Z,83.30
2017-12-06T01:29:13.501Z,83.30
2017-12-06T01:31:41.839Z,83.10
2017-12-06T01:34:09.289Z,83.10
2017-12-06T01:36:36.735Z,83.10
2017-12-06T01:39:04.345Z,83.30
2017-12-06T01:41:32.633Z,83.30
2017-12-06T01:44:00.111Z,83.20
2017-12-06T01:46:27.558Z,83.30
2017-12-06T01:48:55.057Z,83.30
2017-12-06T01:51:23.293Z,82.60
2017-12-06T01:53:50.798Z,82.50
2017-12-06T01:56:18.238Z,82.60
2017-12-06T01:58:45.732Z,82.70
2017-12-06T02:01:13.976Z,83.50
2017-12-06T02:03:41.480Z,83.40
2017-12-06T02:06:08.953Z,83.30
2017-12-06T02:08:36.470Z,83.30
2017-12-06T02:11:03.943Z,83.50
2017-12-06T02:13:32.198Z,83.60
2017-12-06T02:15:59.690Z,83.60
2017-12-06T02:18:27.963Z,83.40
2017-12-06T02:20:56.200Z,84.00
2017-12-06T02:23:23.647Z,83.70
2017-12-06T02:25:51.148Z,83.60
2017-12-06T02:28:18.595Z,83.90
2017-12-06T02:30:46.045Z,83.50
2017-12-06T02:33:13.524Z,84.10
2017-12-06T02:35:41.027Z,83.30
2017-12-06T02:38:09.244Z,86.60
2017-12-06T02:40:36.750Z,86.60
2017-12-06T02:43:04.215Z,83.60
2017-12-06T02:45:31.674Z,83.40
2017-12-06T02:47:59.163Z,83.40
2017-12-06T02:50:27.416Z,83.80
2017-12-06T02:52:54.890Z,83.80
2017-12-06T02:55:22.416Z,84.30
2017-12-06T02:57:49.908Z,84.50
2017-12-06T03:00:17.350Z,84.20
2017-12-06T03:02:44.837Z,84.20
2017-12-06T03:05:12.550Z,84.10
2017-12-06T03:07:39.998Z,84.10
2017-12-06T03:10:07.474Z,84.10
2017-12-06T03:12:34.968Z,84.40
2017-12-06T03:15:02.442Z,84.20
2017-12-06T03:17:29.893Z,84.70
2017-12-06T03:19:57.378Z,84.30
2017-12-06T03:22:24.886Z,84.30
2017-12-06T03:24:52.385Z,84.20
2017-12-06T03:27:19.817Z,84.10
2017-12-06T03:29:47.316Z,83.30
2017-12-06T03:32:14.835Z,83.80
2017-12-06T03:34:42.382Z,83.70
2017-12-06T03:37:09.786Z,84.10
2017-12-06T03:39:37.288Z,85.10
2017-12-06T03:42:04.810Z,83.80
2017-12-06T03:44:32.276Z,84.30
2017-12-06T03:46:59.707Z,84.20
2017-12-06T03:49:27.216Z,84.20
2017-12-06T03:51:54.678Z,84.20
2017-12-06T03:54:22.148Z,84.10
2017-12-06T03:56:49.649Z,84.00
2017-12-06T03:59:17.907Z,84.00
2017-12-06T04:01:45.321Z,84.00
2017-12-06T04:04:12.820Z,84.30
2017-12-06T04:06:40.274Z,84.60
2017-12-06T04:09:07.733Z,84.90
2017-12-06T04:11:35.229Z,84.60
2017-12-06T04:14:03.467Z,84.80
2017-12-06T04:16:30.938Z,84.80
2017-12-06T04:18:58.420Z,85.00
2017-12-06T04:21:25.930Z,85.10
2017-12-06T04:23:53.440Z,85.40
2017-12-06T04:26:20.913Z,85.30
2017-12-06T04:28:48.417Z,85.70
2017-12-06T04:31:15.892Z,85.40
2017-12-06T04:33:43.344Z,86.00
2017-12-06T04:36:10.834Z,86.00
2017-12-06T04:38:38.293Z,85.40
2017-12-06T04:41:05.845Z,85.70
2017-12-06T04:43:33.325Z,85.50
2017-12-06T04:46:00.776Z,85.70
2017-12-06T04:48:28.230Z,85.60
2017-12-06T04:50:55.710Z,86.00
2017-12-06T04:53:23.184Z,86.00
2017-12-06T04:55:50.687Z,85.80
2017-12-06T04:58:18.162Z,86.10
2017-12-06T05:00:45.651Z,86.30
2017-12-06T05:03:13.155Z,86.00
2017-12-06T05:05:41.412Z,86.80
2017-12-06T05:08:08.875Z,86.80
2017-12-06T05:10:36.405Z,86.70
2017-12-06T05:13:03.915Z,86.70
2017-12-06T05:15:31.380Z,86.90
2017-12-06T05:17:58.810Z,86.90
2017-12-06T05:20:26.339Z,86.40
2017-12-06T05:22:53.789Z,86.50
2017-12-06T05:25:21.251Z,86.40
2017-12-06T05:27:48.836Z,86.60
2017-12-06T05:30:16.295Z,86.70
2017-12-06T05:32:43.797Z,86.80
2017-12-06T05:35:11.253Z,87.00
2017-12-06T05:37:38.771Z,87.20
2017-12-06T05:40:07.099Z,87.00
2017-12-06T05:42:34.595Z,86.90
2017-12-06T05:45:02.075Z,87.00
2017-12-06T05:47:29.566Z,86.70
2017-12-06T05:49:57.080Z,86.90
2017-12-06T05:52:24.577Z,87.20
2017-12-06T05:54:52.026Z,87.20
2017-12-06T05:57:19.486Z,86.90
2017-12-06T05:59:47.739Z,87.10
2017-12-06T06:02:15.209Z,87.10
2017-12-06T06:04:42.661Z,87.10
2017-12-06T06:07:10.144Z,86.80
2017-12-06T06:09:38.377Z,86.50
2017-12-06T06:12:05.870Z,86.50
2017-12-06T06:14:33.357Z,86.80
2017-12-06T06:17:01.615Z,86.60
2017-12-06T06:19:29.095Z,86.60
2017-12-06T06:21:57.308Z,86.60
2017-12-06T06:24:24.862Z,86.50
2017-12-06T06:26:52.380Z,86.40
2017-12-06T06:29:19.960Z,86.30
2017-12-06T06:31:48.184Z,86.70
2017-12-06T06:34:15.672Z,86.70
2017-12-06T06:36:43.163Z,85.10
2017-12-06T06:39:11.392Z,86.40
2017-12-06T06:41:38.891Z,86.40
2017-12-06T06:44:06.373Z,87.00
2017-12-06T06:46:33.866Z,86.60
2017-12-06T06:49:01.354Z,86.80
2017-12-06T06:51:28.816Z,87.10
2017-12-06T06:53:56.340Z,86.70
2017-12-06T06:56:24.573Z,87.00
2017-12-06T06:58:52.035Z,87.00
2017-12-06T07:01:19.552Z,86.80
2017-12-06T07:03:47.773Z,87.20
2017-12-06T07:06:15.267Z,87.10
2017-12-06T07:08:42.716Z,87.10
2017-12-06T07:11:10.224Z,86.90
2017-12-06T07:13:37.730Z,88.00
2017-12-06T07:16:05.175Z,87.10
2017-12-06T07:18:32.678Z,87.20
2017-12-06T07:21:00.165Z,87.90
2017-12-06T07:23:28.400Z,87.20
2017-12-06T07:25:55.902Z,87.10
2017-12-06T07:28:24.173Z,87.70
2017-12-06T07:30:51.840Z,87.70
2017-12-06T07:33:20.153Z,88.10
2017-12-06T07:35:47.572Z,88.10
2017-12-06T07:38:15.063Z,88.10
2017-12-06T07:40:42.604Z,88.10
2017-12-06T07:43:10.036Z,88.00
2017-12-06T07:45:37.546Z,88.20
2017-12-06T07:48:05.833Z,88.10
2017-12-06T07:50:34.151Z,88.30
2017-12-06T07:53:01.788Z,88.30
2017-12-06T07:55:29.273Z,88.10
2017-12-06T07:57:56.806Z,88.10
2017-12-06T08:00:24.269Z,87.90
2017-12-06T08:02:51.800Z,88.10
2017-12-06T08:05:19.254Z,87.80
2017-12-06T08:07:46.810Z,88.10
2017-12-06T08:10:14.302Z,88.10
2017-12-06T08:12:42.529Z,88.10
2017-12-06T08:15:10.009Z,88.10
2017-12-06T08:17:37.528Z,88.10
2017-12-06T08:20:05.071Z,88.10
2017-12-06T08:22:32.518Z,88.40
2017-12-06T08:24:59.964Z,88.10
2017-12-06T08:27:27.472Z,88.10
2017-12-06T08:29:55.827Z,88.10
2017-12-06T08:32:23.300Z,88.00
2017-12-06T08:34:50.806Z,88.10
2017-12-06T08:37:18.250Z,88.40
2017-12-06T08:39:46.491Z,88.00
2017-12-06T08:42:14.029Z,87.90
2017-12-06T08:44:41.499Z,87.80
2017-12-06T08:47:09.045Z,87.90
2017-12-06T08:49:36.503Z,87.50
2017-12-06T08:52:03.987Z,88.10
2017-12-06T08:54:31.470Z,88.10
2017-12-06T08:56:58.993Z,88.10
2017-12-06T08:59:26.480Z,87.70
2017-12-06T09:01:53.992Z,88.80
2017-12-06T09:04:22.233Z,88.10
2017-12-06T09:06:49.738Z,88.10
2017-12-06T09:09:17.212Z,88.00
2017-12-06T09:11:44.678Z,87.80
2017-12-06T09:14:12.130Z,87.50
2017-12-06T09:16:39.645Z,87.70
2017-12-06T09:19:07.151Z,87.50
2017-12-06T09:21:35.415Z,87.00
2017-12-06T09:24:03.683Z,87.40
2017-12-06T09:26:31.134Z,87.40
2017-12-06T09:28:58.629Z,87.20
2017-12-06T09:31:26.837Z,87.10
2017-12-06T09:33:54.291Z,87.00
2017-12-06T09:36:21.834Z,86.80
2017-12-06T09:38:49.263Z,86.70
2017-12-06T09:41:16.775Z,86.60
2017-12-06T09:43:44.258Z,86.70
2017-12-06T09:46:11.719Z,86.60
2017-12-06T09:48:39.208Z,86.60
2017-12-06T09:51:06.691Z,86.50
2017-12-06T09:53:34.211Z,86.00
2017-12-06T09:56:01.648Z,86.00
2017-12-06T09:58:29.143Z,86.10
2017-12-06T10:00:56.641Z,86.10
2017-12-06T10:03:24.090Z,85.30
2017-12-06T10:05:51.566Z,85.00
2017-12-06T10:08:19.060Z,84.80
2017-12-06T10:10:47.273Z,84.50
2017-12-06T10:13:14.736Z,84.40
2017-12-06T10:15:42.213Z,84.70
2017-12-06T10:18:09.720Z,84.20
2017-12-06T10:20:37.309Z,83.80
2017-12-06T10:23:04.714Z,83.80
2017-12-06T10:25:32.320Z,83.90
2017-12-06T10:27:59.756Z,84.00
2017-12-06T10:30:27.227Z,84.00
2017-12-06T10:32:55.459Z,84.00
2017-12-06T10:36:41.796Z,83.90
2017-12-06T10:39:09.300Z,83.30
2017-12-06T10:41:36.747Z,83.40
2017-12-06T10:44:04.231Z,83.20
2017-12-06T10:46:31.692Z,83.30
2017-12-06T10:48:59.150Z,83.40
2017-12-06T10:51:26.623Z,83.90
2017-12-06T10:53:54.119Z,83.30
2017-12-06T10:56:21.581Z,83.30
2017-12-06T10:58:49.012Z,82.90
2017-12-06T11:01:16.531Z,83.00
2017-12-06T11:03:44.050Z,83.20
2017-12-06T11:06:11.502Z,82.90
2017-12-06T11:08:38.986Z,83.60
2017-12-06T11:11:07.218Z,83.60
2017-12-06T11:13:34.736Z,83.50
2017-12-06T11:16:02.983Z,83.60
2017-12-06T11:18:30.426Z,83.50
2017-12-06T11:20:57.917Z,83.20
2017-12-06T11:23:25.434Z,83.10
2017-12-06T11:25:52.944Z,83.20
2017-12-06T11:28:20.541Z,83.20
2017-12-06T11:30:48.763Z,83.30
2017-12-06T11:33:16.231Z,83.20
2017-12-06T11:35:43.682Z,83.10
2017-12-06T11:38:11.153Z,83.00
2017-12-06T11:40:38.657Z,82.70
2017-12-06T11:43:06.879Z,82.90
2017-12-06T11:45:34.396Z,82.90
2017-12-06T11:48:02.685Z,82.40
2017-12-06T11:50:30.911Z,82.40
2017-12-06T11:52:58.397Z,82.40
2017-12-06T11:55:25.858Z,82.70
2017-12-06T11:57:53.329Z,82.60
2017-12-06T12:00:20.808Z,82.70
2017-12-06T12:02:48.315Z,82.50
2017-12-06T12:05:15.809Z,82.10
2017-12-06T12:07:43.309Z,82.10
2017-12-06T12:10:10.799Z,82.00
2017-12-06T12:12:38.368Z,81.80
2017-12-06T12:15:06.590Z,81.70
2017-12-06T12:17:34.077Z,81.70
2017-12-06T12:20:01.616Z,81.90
2017-12-06T12:22:29.035Z,82.40
2017-12-06T12:24:56.588Z,81.70
2017-12-06T12:27:24.801Z,81.60
2017-12-06T12:29:52.277Z,81.60
2017-12-06T12:32:19.759Z,81.50
2017-12-06T12:34:47.993Z,81.00
2017-12-06T12:37:15.449Z,81.00
2017-12-06T12:39:42.979Z,81.10
2017-12-06T12:42:10.432Z,80.80
2017-12-06T12:44:38.729Z,80.90
2017-12-06T12:47:06.289Z,80.90
2017-12-06T12:49:33.678Z,81.10
2017-12-06T12:52:01.235Z,81.00
2017-12-06T12:54:29.405Z,81.10
2017-12-06T12:56:56.878Z,81.10
2017-12-06T12:59:24.367Z,81.10
2017-12-06T13:01:51.966Z,80.70
2017-12-06T13:04:20.228Z,80.50
2017-12-06T13:06:47.702Z,80.50
2017-12-06T13:09:15.922Z,80.60
2017-12-06T13:11:43.396Z,80.50
2017-12-06T13:14:10.898Z,80.40
2017-12-06T13:16:38.344Z,80.80
2017-12-06T13:19:05.847Z,79.70
2017-12-06T13:21:33.312Z,80.20
2017-12-06T13:24:01.581Z,80.10
2017-12-06T13:26:28.990Z,80.10
2017-12-06T13:28:56.469Z,80.40
2017-12-06T13:31:23.958Z,80.50
2017-12-06T13:33:51.455Z,80.10
2017-12-06T13:36:18.899Z,80.70
2017-12-06T13:38:46.356Z,80.80
2017-12-06T13:41:14.629Z,81.10
2017-12-06T13:43:42.885Z,81.10
2017-12-06T13:46:10.337Z,81.10
2017-12-06T13:48:37.849Z,81.30
2017-12-06T13:51:06.105Z,81.30
2017-12-06T13:53:33.562Z,81.30
2017-12-06T13:56:01.107Z,81.50
2017-12-06T13:58:28.649Z,81.90
2017-12-06T14:00:56.106Z,81.80
2017-12-06T14:03:23.767Z,81.80
2017-12-06T14:05:51.216Z,82.20
2017-12-06T14:08:18.719Z,82.10
2017-12-06T14:10:46.167Z,82.30
2017-12-06T14:13:13.664Z,82.30
2017-12-06T14:15:41.165Z,81.90
2017-12-06T14:18:09.445Z,82.00
2017-12-06T14:20:37.718Z,82.20
2017-12-06T14:23:05.993Z,82.30
2017-12-06T14:25:34.244Z,82.40
2017-12-06T14:28:01.691Z,82.30
2017-12-06T14:30:29.152Z,81.90
2017-12-06T14:32:56.636Z,81.40
2017-12-06T14:35:24.123Z,80.70
2017-12-06T14:37:52.422Z,81.00
2017-12-06T14:40:20.654Z,81.40
2017-12-06T14:42:48.154Z,81.30
2017-12-06T14:45:16.375Z,81.00
2017-12-06T14:47:43.886Z,81.00
2017-12-06T14:50:11.339Z,80.40
2017-12-06T14:52:38.772Z,80.50
2017-12-06T14:55:06.321Z,80.30
2017-12-06T14:57:34.916Z,80.20
2017-12-06T15:00:02.815Z,80.50
2017-12-06T15:02:31.142Z,80.40
2017-12-06T15:04:58.634Z,80.50
2017-12-06T15:07:26.092Z,80.50
2017-12-06T15:09:54.437Z,79.90
2017-12-06T15:12:21.943Z,80.50
2017-12-06T15:14:49.514Z,80.70
2017-12-06T15:17:16.950Z,81.00
2017-12-06T15:19:44.543Z,81.70
2017-12-06T15:22:12.289Z,81.70
2017-12-06T15:24:39.985Z,82.20
2017-12-06T15:27:07.653Z,82.20
2017-12-06T15:29:35.073Z,82.30
2017-12-06T15:32:02.562Z,82.50
2017-12-06T15:34:30.047Z,82.90
2017-12-06T15:36:57.584Z,82.90
2017-12-06T15:39:25.111Z,82.80
2017-12-06T15:41:53.339Z,82.80
2017-12-06T15:44:20.856Z,82.80
2017-12-06T15:46:48.429Z,83.00
2017-12-06T15:49:16.029Z,82.80
2017-12-06T15:51:43.517Z,83.00
2017-12-06T15:54:11.005Z,82.60
2017-12-06T15:56:38.520Z,82.70
2017-12-06T15:59:05.950Z,82.60
2017-12-06T16:01:33.416Z,82.30
2017-12-06T16:04:00.896Z,82.50
2017-12-06T16:06:28.493Z,82.20
2017-12-06T16:08:55.958Z,82.10
2017-12-06T16:11:23.503Z,82.20
2017-12-06T16:13:50.948Z,81.90
2017-12-06T16:16:18.578Z,81.80
2017-12-06T16:18:46.848Z,81.50
2017-12-06T16:21:14.378Z,81.40
2017-12-06T16:23:41.925Z,81.40
2017-12-06T16:26:09.440Z,81.20
2017-12-06T16:28:37.676Z,81.30
2017-12-06T16:31:05.156Z,81.30
2017-12-06T16:33:32.646Z,81.00
2017-12-06T16:36:00.903Z,81.00
2017-12-06T16:38:28.619Z,81.00
2017-12-06T16:40:56.084Z,81.30
2017-12-06T16:43:23.555Z,81.10
2017-12-06T16:45:51.097Z,80.90
2017-12-06T16:48:18.604Z,80.70
2017-12-06T16:50:46.112Z,80.30
2017-12-06T16:53:13.559Z,80.30
2017-12-06T16:55:41.055Z,80.60
2017-12-06T16:58:08.513Z,80.50
2017-12-06T17:00:35.944Z,80.70
2017-12-06T17:03:03.478Z,80.70
2017-12-06T17:05:30.919Z,80.70
2017-12-06T17:07:58.472Z,80.70
2017-12-06T17:10:26.740Z,81.10
2017-12-06T17:12:55.109Z,80.80
2017-12-06T17:15:22.692Z,80.70
2017-12-06T17:17:50.175Z,81.00
2017-12-06T17:20:17.681Z,80.80
2017-12-06T17:22:45.201Z,81.00
2017-12-06T17:25:12.625Z,81.10
2017-12-06T17:27:40.918Z,80.80
2017-12-06T17:30:09.261Z,80.90
2017-12-06T17:32:36.752Z,80.80
2017-12-06T17:35:05.036Z,81.40
2017-12-06T17:37:33.261Z,81.30
2017-12-06T17:40:00.801Z,81.20
2017-12-06T17:42:28.339Z,81.10
2017-12-06T17:44:55.776Z,81.20
2017-12-06T17:47:23.318Z,81.30
2017-12-06T17:49:52.502Z,81.00
2017-12-06T17:52:20.819Z,81.00
2017-12-06T17:54:48.288Z,80.90
2017-12-06T17:57:15.787Z,81.50
2017-12-06T17:59:43.275Z,82.00
2017-12-06T18:02:10.748Z,82.00
2017-12-06T18:04:38.405Z,82.80
2017-12-06T18:07:06.690Z,82.60
2017-12-06T18:09:34.499Z,82.60
2017-12-06T18:12:01.937Z,82.90
2017-12-06T18:14:29.398Z,83.20
2017-12-06T18:16:57.006Z,83.30
2017-12-06T18:19:24.597Z,83.10
2017-12-06T18:21:52.067Z,83.60
2017-12-06T18:24:20.459Z,83.90
2017-12-06T18:26:47.893Z,83.40
2017-12-06T18:29:16.143Z,83.20
2017-12-06T18:31:43.682Z,83.20
2017-12-06T18:34:11.147Z,82.80
2017-12-06T18:36:38.617Z,83.40
2017-12-06T18:39:06.084Z,83.60
2017-12-06T18:41:33.622Z,82.90
2017-12-06T18:44:01.129Z,82.10
2017-12-06T18:46:28.599Z,81.80
2017-12-06T18:48:56.834Z,81.50
2017-12-06T18:51:24.352Z,81.50
2017-12-06T18:53:52.584Z,80.20
2017-12-06T18:56:20.019Z,80.10
2017-12-06T18:58:47.544Z,80.30
2017-12-06T19:01:15.057Z,80.60
2017-12-06T19:03:43.292Z,80.20
2017-12-06T19:06:10.850Z,80.20
2017-12-06T19:08:38.377Z,79.90
2017-12-06T19:11:05.822Z,79.70
2017-12-06T19:13:34.074Z,79.70
2017-12-06T19:16:02.325Z,79.70
2017-12-06T19:18:29.812Z,79.70
2017-12-06T19:20:58.062Z,79.70
2017-12-06T19:23:25.573Z,79.70
2017-12-06T19:25:53.068Z,79.70
2017-12-06T19:28:20.560Z,79.70
2017-12-06T19:30:48.035Z,79.70
2017-12-06T19:33:16.315Z,79.70
2017-12-06T19:35:43.788Z,79.60
2017-12-06T19:38:11.233Z,80.10
2017-12-06T19:40:38.917Z,80.40
2017-12-06T19:43:07.180Z,80.30
2017-12-06T19:45:34.719Z,80.20
2017-12-06T19:48:02.168Z,79.70
2017-12-06T19:50:29.709Z,80.40
2017-12-06T19:52:57.923Z,80.40
2017-12-06T19:55:25.423Z,80.40
2017-12-06T19:57:53.684Z,80.70
2017-12-06T20:00:21.225Z,80.70
2017-12-06T20:02:48.629Z,80.40
2017-12-06T20:05:16.898Z,80.40
2017-12-06T20:07:44.498Z,80.30
2017-12-06T20:10:11.907Z,80.90
2017-12-06T20:12:39.398Z,80.70
2017-12-06T20:15:07.848Z,80.90
2017-12-06T20:17:35.441Z,80.90
2017-12-06T20:20:02.894Z,81.10
2017-12-06T20:22:30.442Z,80.60
2017-12-06T20:24:57.934Z,80.90
2017-12-06T20:27:25.440Z,81.50
2017-12-06T20:29:52.924Z,80.90
2017-12-06T20:32:20.384Z,80.50
2017-12-06T20:34:47.866Z,80.60
2017-12-06T20:37:15.359Z,80.70
2017-12-06T20:39:43.646Z,80.60
2017-12-06T20:42:11.100Z,80.60
2017-12-06T20:44:38.605Z,80.90
2017-12-06T20:47:06.225Z,81.30
2017-12-06T20:49:33.629Z,81.20
2017-12-06T20:52:01.192Z,80.90
2017-12-06T20:54:28.647Z,81.00
2017-12-06T20:56:56.104Z,80.50
2017-12-06T20:59:23.659Z,80.70
2017-12-06T21:01:51.112Z,81.30
2017-12-06T21:04:19.373Z,81.30
2017-12-06T21:06:46.900Z,81.30
2017-12-06T21:09:14.425Z,81.80
2017-12-06T21:11:41.904Z,82.10
2017-12-06T21:14:09.401Z,81.70
2017-12-06T21:16:36.911Z,81.90
2017-12-06T21:19:04.394Z,82.00
2017-12-06T21:21:32.599Z,82.70
2017-12-06T21:24:00.088Z,82.70
2017-12-06T21:26:27.580Z,82.70
2017-12-06T21:28:55.161Z,82.50
2017-12-06T21:31:22.667Z,83.00
2017-12-06T21:33:50.164Z,82.90
2017-12-06T21:36:17.593Z,83.20
2017-12-06T21:38:45.113Z,82.70
2017-12-06T21:41:13.322Z,82.50
2017-12-06T21:43:40.896Z,82.50
2017-12-06T21:46:08.373Z,82.70
2017-12-06T21:48:35.844Z,82.50
2017-12-06T21:51:03.338Z,82.10
2017-12-06T21:53:31.342Z,81.20
2017-12-06T21:55:58.817Z,80.10
2017-12-06T21:58:26.288Z,80.10
2017-12-06T22:00:53.781Z,78.70
2017-12-06T22:03:21.243Z,77.60
2017-12-06T22:05:49.488Z,74.80
2017-12-06T22:08:16.956Z,74.80
2017-12-06T22:10:44.465Z,74.70
2017-12-06T22:13:12.663Z,74.10
2017-12-06T22:15:40.161Z,74.00
2017-12-06T22:18:07.673Z,73.80
2017-12-06T22:20:35.147Z,73.50
2017-12-06T22:23:02.636Z,71.00
2017-12-06T22:25:30.183Z,70.70
2017-12-06T22:27:57.712Z,70.80
2017-12-06T22:30:25.173Z,71.80
2017-12-06T22:32:52.679Z,71.70
2017-12-06T22:35:20.179Z,70.10
2017-12-06T22:37:47.663Z,69.00
2017-12-06T22:40:15.940Z,69.40
2017-12-06T22:42:44.163Z,68.90
2017-12-06T22:45:11.656Z,68.80
2017-12-06T22:47:39.135Z,68.60
2017-12-06T22:50:06.595Z,68.10
2017-12-06T22:52:34.105Z,67.10
2017-12-06T22:55:01.627Z,67.10
2017-12-06T22:57:29.101Z,67.00
2017-12-06T22:59:57.358Z,67.40
2017-12-06T23:02:24.828Z,67.30
2017-12-06T23:04:53.086Z,66.70
2017-12-06T23:07:20.562Z,66.70
2017-12-06T23:09:48.082Z,65.70
2017-12-06T23:12:15.572Z,65.00
2017-12-06T23:14:43.047Z,65.70
2017-12-06T23:17:10.538Z,65.30
2017-12-06T23:19:37.962Z,65.00
2017-12-06T23:22:05.412Z,65.00
2017-12-06T23:24:32.950Z,65.00
2017-12-06T23:27:00.446Z,64.80
2017-12-06T23:29:27.877Z,64.10
2017-12-06T23:31:55.328Z,64.80
2017-12-06T23:34:22.818Z,63.50
2017-12-06T23:36:50.276Z,64.80
2017-12-06T23:39:17.766Z,63.60
2017-12-06T23:41:45.256Z,63.70
2017-12-06T23:44:12.723Z,63.20
2017-12-06T23:46:40.977Z,63.20
2017-12-06T23:49:08.513Z,63.20
2017-12-06T23:51:35.991Z,62.30
2017-12-06T23:54:03.434Z,62.60
2017-12-06T23:56:30.951Z,62.20
2017-12-06T23:58:59.180Z,62.40
